Flight Track Log - Related Links

Times and Time Zones

All times are in EDT time to prevent confusion due to time zone crossing. See the N240ER flight status page for this flight to view local times or setup timezone preferences in your user account.

Time Position Orientation Groundspeed Altitude Reporting Facility
EDT Latitude Longitude Course Direction KTS MPH feet Rate Location/Type
Tue 04:34:13 PM 41.7047 -93.5567 North 102 117 1,300  Level Minneapolis Center
Tue 04:35:08 PM 41.7317 -93.5514 North 109 125 2,600 1,231 Climbing Minneapolis Center
Tue 04:36:10 PM 41.7581 -93.5444 11° North 125 144 3,700 1,258 Climbing Minneapolis Center
Tue 04:37:12 PM 41.7606 -93.5950 274° West 135 155 5,200 1,381 Climbing Minneapolis Center
Tue 04:38:03 PM 41.7608 -93.6294 271° West 141 162 6,300 1,286 Climbing Minneapolis Center
Tue 04:39:04 PM 41.7511 -93.6833 256° West 147 169 7,600 1,230 Climbing Minneapolis Center
Tue 04:40:05 PM 41.7433 -93.7369 259° West 146 168 8,800 1,191 Climbing Minneapolis Center
Tue 04:41:20 PM 41.7275 -93.8117 254° West 141 162 10,300 1,182 Climbing Minneapolis Center
Tue 04:42:22 PM 41.7208 -93.8642 260° West 142 163 11,500 823 Climbing Minneapolis Center
Tue 04:43:24 PM 41.7094 -93.9206 255° West 150 173 12,000 242 Climbing Minneapolis Center
Tue 04:44:26 PM 41.7000 -93.9881 259° West 183 211 12,000  Level Minneapolis Center
Tue 04:45:28 PM 41.6886 -94.0553 257° West 185 213 12,000  Level Minneapolis Center
Tue 04:46:30 PM 41.6778 -94.1256 258° West 180 207 12,000  Level Minneapolis Center
Tue 04:47:32 PM 41.6667 -94.1919 257° West 183 211 12,000  Level Minneapolis Center
Tue 04:48:34 PM 41.6553 -94.2628 258° West 183 211 12,000  Level Minneapolis Center
Tue 04:49:36 PM 41.6447 -94.3281 258° West 180 207 12,000  Level Minneapolis Center
Tue 04:50:38 PM 41.6333 -94.3972 258° West 179 206 12,000  Level Minneapolis Center
Tue 04:51:39 PM 41.6228 -94.4625 258° West 180 207 12,000  Level Minneapolis Center
Tue 04:52:41 PM 41.6111 -94.5344 258° West 186 214 12,000  Level Minneapolis Center
Tue 04:53:43 PM 41.6000 -94.6003 257° West 183 211 12,000  Level Minneapolis Center
Tue 04:54:45 PM 41.5894 -94.6656 258° West 182 209 12,000  Level Minneapolis Center
Tue 04:55:47 PM 41.5778 -94.7367 258° West 181 208 12,000  Level Minneapolis Center
Tue 04:56:49 PM 41.5667 -94.8003 257° West 177 204 12,000  Level Minneapolis Center
Tue 04:57:51 PM 41.5564 -94.8692 259° West 177 204 12,000  Level Minneapolis Center
Tue 04:58:22 PM 41.5633 -94.9128 282° West 176 203 12,000  Level Minneapolis Center
Tue 04:58:53 PM 41.5458 -94.9311 218° Southwest 179 206 12,000  Level Minneapolis Center
Tue 04:59:34 PM 41.5503 -94.9897 276° West 182 209 12,000  Level Minneapolis Center
Tue 04:59:55 PM 41.5356 -94.9969 200° South 180 207 12,000 -358 Level Minneapolis Center
Tue 05:00:41 PM 41.5325 -95.0619 266° West 177 204 11,600 -484 Descending Minneapolis Center
Tue 05:00:57 PM 41.5181 -95.0589 171° South 179 206 11,500 -590 Descending Minneapolis Center
Tue 05:01:42 PM 41.5158 -95.1225 267° West 174 200 11,000 -581 Descending Minneapolis Center
Tue 05:01:59 PM 41.5033 -95.1189 168° South 175 201 10,900 -875 Descending Minneapolis Center
Tue 05:02:30 PM 41.5028 -95.1742 269° West 172 198 10,300 -774 Descending Minneapolis Center
Tue 05:03:01 PM 41.4894 -95.1797 197° South 173 199 10,100 -806 Descending Minneapolis Center
Tue 05:03:37 PM 41.4883 -95.2347 268° West 159 183 9,400 -984 Descending Minneapolis Center
Tue 05:04:02 PM 41.4753 -95.2475 216° Southwest 166 191 9,100 -787 Descending Minneapolis Center
Tue 05:04:38 PM 41.4778 -95.2917 274° West 160 184 8,600 -774 Descending Minneapolis Center
Tue 05:05:04 PM 41.4636 -95.3056 216° Southwest 163 188 8,300 -800 Descending Minneapolis Center
Tue 05:05:38 PM 41.4650 -95.3489 272° West 164 189 7,800 -774 Descending Minneapolis Center
Tue 05:06:06 PM 41.4517 -95.3644 221° Southwest 163 188 7,500 -787 Descending Minneapolis Center
Tue 05:06:39 PM 41.4506 -95.4092 268° West 168 193 7,000 -774 Descending Minneapolis Center
Tue 05:07:08 PM 41.4386 -95.4253 225° Southwest 166 191 6,700 -885 Descending Minneapolis Center
Tue 05:07:40 PM 41.4275 -95.4678 251° West 170 196 6,100 -871 Descending Minneapolis Center
Tue 05:08:10 PM 41.4156 -95.4803 218° Southwest 168 193 5,800 -800 Descending Minneapolis Center
Tue 05:08:40 PM 41.4017 -95.5208 245° Southwest 170 196 5,300 -774 Descending Minneapolis Center
Tue 05:09:12 PM 41.3878 -95.5319 211° Southwest 170 196 5,000 -689 Descending Minneapolis Center
Tue 05:09:41 PM 41.3719 -95.5744 244° Southwest 177 204 4,600 -689 Descending Minneapolis Center
Tue 05:10:13 PM 41.3581 -95.5853 210° Southwest 173 199 4,300 -590 Descending Minneapolis Center
Tue 05:10:42 PM 41.3417 -95.6225 240° Southwest 178 205 4,000 -387 Descending Minneapolis Center
Tue 05:11:15 PM 41.3225 -95.6458 222° Southwest 174 200 3,900 -400 Descending Minneapolis Center
Tue 05:11:42 PM 41.3117 -95.6733 242° Southwest 169 194 3,600 -581 Descending Minneapolis Center
Tue 05:12:17 PM 41.2922 -95.6958 221° Southwest 173 199 3,300 -492 Descending Minneapolis Center
Tue 05:12:43 PM 41.2817 -95.7242 244° Southwest 182 209 3,100 -290 Descending Minneapolis Center
Tue 05:13:19 PM 41.2647 -95.7528 232° Southwest 176 203 3,000 -98 Descending Minneapolis Center
Tue 05:13:44 PM 41.2564 -95.7825 250° West 184 212 3,000 -484 Level Minneapolis Center
Tue 05:14:21 PM 41.2425 -95.8108 237° Southwest 177 204 2,500 -800 Descending Minneapolis Center
Tue 05:14:44 PM 41.2433 -95.8369 272° West 145 167 2,200 -590 Descending Minneapolis Center
Tue 05:15:22 PM 41.2567 -95.8456 334° Northwest 144 166 1,900 -590 Descending Minneapolis Center
Tue 05:15:45 PM 41.2678 -95.8617 313° West 97 112 1,600 -484 Descending Minneapolis Center
Tue 05:16:24 PM 41.2786 -95.8669 340° North 117 135 1,400 -297 Descending Minneapolis Center
Tue 05:17:26 PM 41.2989 -95.8867 324° Northwest 101 116 1,100 -290 Descending Minneapolis Center
Tue 05:19:00 PM 41.3000 -95.8833 270° West  Level FlightAware Approximate

Login

Don't have an account? Register now (free) for customized features, flight alerts, and more!